Terminal Aerodrome Forecast
Issued by NWS

Home | Current Version | Previous Version | Text Only | Print | Product List | Glossary On
Versions: 1 2 3 4 5 6 7 8 9 10 11 12 13 14 15
000
FTUS43 KFGF 031124
TAFTVF
TAF
KTVF 031124Z 0312/0412 04008KT P6SM OVC030
     FM031400 01011KT P6SM OVC012
      TEMPO 0314/0318 BKN006
     FM032300 35010KT P6SM OVC035
      AMD LTD TO CLD VIS AND WIND=

USA.gov is the U.S. government's official web portal to all federal, state and local government web resources and services.